sensor_id;sensor_type;location;lat;lon;timestamp;pressure;altitude;pressure_sealevel;temperature;humidity
34081;BME280;20358;50.272;19.026;2023-10-19T00:01:44;97633.28;;;9.18;56.08
34081;BME280;20358;50.272;19.026;2023-10-19T00:04:51;97624.72;;;9.16;56.20
34081;BME280;20358;50.272;19.026;2023-10-19T00:07:58;97622.13;;;9.16;56.17
34081;BME280;20358;50.272;19.026;2023-10-19T00:11:09;97611.69;;;9.16;56.25
34081;BME280;20358;50.272;19.026;2023-10-19T00:14:27;97616.16;;;9.14;56.33
34081;BME280;20358;50.272;19.026;2023-10-19T00:17:34;97609.25;;;9.13;56.30
34081;BME280;20358;50.272;19.026;2023-10-19T00:20:39;97602.38;;;9.12;56.27
34081;BME280;20358;50.272;19.026;2023-10-19T00:23:55;97597.16;;;9.12;56.43
34081;BME280;20358;50.272;19.026;2023-10-19T00:27:02;97591.09;;;9.12;56.52
34081;BME280;20358;50.272;19.026;2023-10-19T00:30:21;97588.38;;;9.13;56.66
34081;BME280;20358;50.272;19.026;2023-10-19T00:33:33;97576.94;;;9.16;56.48
34081;BME280;20358;50.272;19.026;2023-10-19T00:36:42;97572.56;;;9.16;56.24
34081;BME280;20358;50.272;19.026;2023-10-19T00:39:49;97567.53;;;9.13;56.25
34081;BME280;20358;50.272;19.026;2023-10-19T00:42:57;97570.91;;;9.15;56.48
34081;BME280;20358;50.272;19.026;2023-10-19T00:46:08;97568.38;;;9.14;56.23
34081;BME280;20358;50.272;19.026;2023-10-19T00:49:18;97560.56;;;9.14;56.35
34081;BME280;20358;50.272;19.026;2023-10-19T00:52:27;97546.88;;;9.10;56.47
34081;BME280;20358;50.272;19.026;2023-10-19T00:55:34;97544.16;;;9.12;56.40
34081;BME280;20358;50.272;19.026;2023-10-19T00:58:42;97536.22;;;9.13;56.50
34081;BME280;20358;50.272;19.026;2023-10-19T01:01:58;97532.53;;;9.17;56.48
34081;BME280;20358;50.272;19.026;2023-10-19T01:05:20;97532.53;;;9.17;56.58
34081;BME280;20358;50.272;19.026;2023-10-19T01:08:27;97523.03;;;9.16;56.55
34081;BME280;20358;50.272;19.026;2023-10-19T01:11:43;97517.06;;;9.14;56.19
34081;BME280;20358;50.272;19.026;2023-10-19T01:15:03;97509.34;;;9.13;56.20
34081;BME280;20358;50.272;19.026;2023-10-19T01:18:16;97510.38;;;9.10;56.32
34081;BME280;20358;50.272;19.026;2023-10-19T01:21:23;97510.38;;;9.10;56.22
34081;BME280;20358;50.272;19.026;2023-10-19T01:24:43;97494.88;;;9.07;56.15
34081;BME280;20358;50.272;19.026;2023-10-19T01:27:50;97493.19;;;9.06;56.35
34081;BME280;20358;50.272;19.026;2023-10-19T01:31:02;97488.16;;;9.03;56.37
34081;BME280;20358;50.272;19.026;2023-10-19T01:34:10;97481.28;;;9.02;56.23
34081;BME280;20358;50.272;19.026;2023-10-19T01:37:17;97482.19;;;9.01;56.34
34081;BME280;20358;50.272;19.026;2023-10-19T01:40:26;97471.09;;;8.98;56.22
34081;BME280;20358;50.272;19.026;2023-10-19T01:43:38;97467.84;;;8.94;56.28
34081;BME280;20358;50.272;19.026;2023-10-19T01:46:43;97462.78;;;8.91;56.18
34081;BME280;20358;50.272;19.026;2023-10-19T01:49:52;97461.25;;;8.87;56.30
34081;BME280;20358;50.272;19.026;2023-10-19T01:52:58;97452.69;;;8.85;56.43
34081;BME280;20358;50.272;19.026;2023-10-19T01:56:08;97463.28;;;8.82;56.47
34081;BME280;20358;50.272;19.026;2023-10-19T01:59:17;97453.97;;;8.78;56.52
34081;BME280;20358;50.272;19.026;2023-10-19T02:02:25;97450.84;;;8.71;56.29
34081;BME280;20358;50.272;19.026;2023-10-19T02:05:30;97444.25;;;8.66;56.87
34081;BME280;20358;50.272;19.026;2023-10-19T02:08:45;97434.91;;;8.62;56.87
34081;BME280;20358;50.272;19.026;2023-10-19T02:11:55;97435.09;;;8.59;56.88
34081;BME280;20358;50.272;19.026;2023-10-19T02:15:07;97434.34;;;8.57;57.19
34081;BME280;20358;50.272;19.026;2023-10-19T02:18:16;97434.34;;;8.57;57.11
34081;BME280;20358;50.272;19.026;2023-10-19T02:21:24;97421.63;;;8.51;57.45
34081;BME280;20358;50.272;19.026;2023-10-19T02:24:33;97411.22;;;8.51;57.60
34081;BME280;20358;50.272;19.026;2023-10-19T02:27:43;97404.94;;;8.55;57.60
34081;BME280;20358;50.272;19.026;2023-10-19T02:30:47;97401.22;;;8.59;57.70
34081;BME280;20358;50.272;19.026;2023-10-19T02:33:54;97398.84;;;8.70;57.89
34081;BME280;20358;50.272;19.026;2023-10-19T02:37:05;97387.16;;;8.77;57.77
34081;BME280;20358;50.272;19.026;2023-10-19T02:40:13;97384.94;;;8.85;58.03
34081;BME280;20358;50.272;19.026;2023-10-19T02:43:25;97382.72;;;8.93;57.82
34081;BME280;20358;50.272;19.026;2023-10-19T02:46:30;97384.72;;;9.04;57.81
34081;BME280;20358;50.272;19.026;2023-10-19T02:49:38;97374.59;;;9.13;57.54
34081;BME280;20358;50.272;19.026;2023-10-19T02:52:47;97366.97;;;9.24;57.54
34081;BME280;20358;50.272;19.026;2023-10-19T02:55:50;97363.06;;;9.31;57.25
34081;BME280;20358;50.272;19.026;2023-10-19T02:59:00;97356.56;;;9.39;56.98
34081;BME280;20358;50.272;19.026;2023-10-19T03:02:10;97347.72;;;9.41;56.89
34081;BME280;20358;50.272;19.026;2023-10-19T03:05:21;97337.00;;;9.46;56.90
34081;BME280;20358;50.272;19.026;2023-10-19T03:08:29;97335.88;;;9.50;56.87
34081;BME280;20358;50.272;19.026;2023-10-19T03:11:36;97326.94;;;9.54;56.66
34081;BME280;20358;50.272;19.026;2023-10-19T03:14:45;97325.72;;;9.59;56.87
34081;BME280;20358;50.272;19.026;2023-10-19T03:17:54;97316.75;;;9.63;56.81
34081;BME280;20358;50.272;19.026;2023-10-19T03:21:01;97315.75;;;9.66;56.55
34081;BME280;20358;50.272;19.026;2023-10-19T03:24:09;97308.66;;;9.68;56.46
34081;BME280;20358;50.272;19.026;2023-10-19T03:27:26;97304.94;;;9.72;55.76
34081;BME280;20358;50.272;19.026;2023-10-19T03:30:33;97296.06;;;9.74;55.87
34081;BME280;20358;50.272;19.026;2023-10-19T03:33:42;97295.97;;;9.76;55.88
34081;BME280;20358;50.272;19.026;2023-10-19T03:36:51;97286.25;;;9.78;55.41
34081;BME280;20358;50.272;19.026;2023-10-19T03:39:58;97285.34;;;9.79;55.72
34081;BME280;20358;50.272;19.026;2023-10-19T03:43:10;97296.50;;;9.81;55.35
34081;BME280;20358;50.272;19.026;2023-10-19T03:46:23;97293.28;;;9.77;55.21
34081;BME280;20358;50.272;19.026;2023-10-19T03:49:32;97287.50;;;9.72;55.33
34081;BME280;20358;50.272;19.026;2023-10-19T03:52:41;97289.28;;;9.72;55.65
34081;BME280;20358;50.272;19.026;2023-10-19T03:55:49;97280.72;;;9.70;55.81
34081;BME280;20358;50.272;19.026;2023-10-19T03:58:59;97277.16;;;9.71;56.22
34081;BME280;20358;50.272;19.026;2023-10-19T04:02:13;97271.94;;;9.71;55.96
34081;BME280;20358;50.272;19.026;2023-10-19T04:05:24;97254.41;;;9.73;55.96
34081;BME280;20358;50.272;19.026;2023-10-19T04:08:32;97243.94;;;9.73;56.41
34081;BME280;20358;50.272;19.026;2023-10-19T04:11:40;97246.91;;;9.81;56.17
34081;BME280;20358;50.272;19.026;2023-10-19T04:14:51;97246.53;;;9.87;56.36
34081;BME280;20358;50.272;19.026;2023-10-19T04:18:02;97245.19;;;9.94;56.48
34081;BME280;20358;50.272;19.026;2023-10-19T04:21:16;97240.63;;;9.97;56.62
34081;BME280;20358;50.272;19.026;2023-10-19T04:24:22;97230.72;;;10.03;56.32
34081;BME280;20358;50.272;19.026;2023-10-19T04:27:31;97218.84;;;10.11;56.07
34081;BME280;20358;50.272;19.026;2023-10-19T04:30:39;97206.38;;;10.16;55.84
34081;BME280;20358;50.272;19.026;2023-10-19T04:33:49;97205.41;;;10.17;55.83
34081;BME280;20358;50.272;19.026;2023-10-19T04:36:57;97195.72;;;10.19;55.71
34081;BME280;20358;50.272;19.026;2023-10-19T04:40:08;97195.94;;;10.16;55.29
34081;BME280;20358;50.272;19.026;2023-10-19T04:43:15;97193.94;;;10.20;55.28
34081;BME280;20358;50.272;19.026;2023-10-19T04:46:22;97188.81;;;10.18;55.16
34081;BME280;20358;50.272;19.026;2023-10-19T04:49:35;97189.13;;;10.14;55.40
34081;BME280;20358;50.272;19.026;2023-10-19T04:52:42;97196.13;;;10.13;55.34
34081;BME280;20358;50.272;19.026;2023-10-19T04:55:48;97190.91;;;10.13;55.44
34081;BME280;20358;50.272;19.026;2023-10-19T04:58:55;97189.75;;;10.17;55.42
34081;BME280;20358;50.272;19.026;2023-10-19T05:02:03;97183.41;;;10.21;55.21
34081;BME280;20358;50.272;19.026;2023-10-19T05:05:13;97184.00;;;10.25;54.93
34081;BME280;20358;50.272;19.026;2023-10-19T05:08:20;97177.75;;;10.27;55.03
34081;BME280;20358;50.272;19.026;2023-10-19T05:11:28;97177.75;;;10.27;54.98
34081;BME280;20358;50.272;19.026;2023-10-19T05:14:34;97170.66;;;10.29;55.09
34081;BME280;20358;50.272;19.026;2023-10-19T05:17:41;97177.16;;;10.36;54.87
34081;BME280;20358;50.272;19.026;2023-10-19T05:20:52;97168.38;;;10.37;54.99
34081;BME280;20358;50.272;19.026;2023-10-19T05:24:05;97170.88;;;10.39;55.12
34081;BME280;20358;50.272;19.026;2023-10-19T05:27:12;97169.00;;;10.41;55.01
34081;BME280;20358;50.272;19.026;2023-10-19T05:30:21;97135.16;;;10.27;54.92
34081;BME280;20358;50.272;19.026;2023-10-19T05:33:28;97175.91;;;10.54;54.99
34081;BME280;20358;50.272;19.026;2023-10-19T05:36:39;97182.38;;;10.62;54.84
34081;BME280;20358;50.272;19.026;2023-10-19T05:39:47;97169.63;;;10.70;54.72
34081;BME280;20358;50.272;19.026;2023-10-19T05:42:56;97176.94;;;10.77;54.62
34081;BME280;20358;50.272;19.026;2023-10-19T05:46:04;97174.97;;;10.81;54.15
34081;BME280;20358;50.272;19.026;2023-10-19T05:49:11;97177.25;;;10.85;54.32
34081;BME280;20358;50.272;19.026;2023-10-19T05:52:22;97175.16;;;10.90;53.86
34081;BME280;20358;50.272;19.026;2023-10-19T05:55:29;97167.25;;;10.92;53.97
34081;BME280;20358;50.272;19.026;2023-10-19T05:58:35;97172.97;;;10.97;53.88
34081;BME280;20358;50.272;19.026;2023-10-19T06:01:46;97161.47;;;10.99;53.77
34081;BME280;20358;50.272;19.026;2023-10-19T06:04:52;97162.72;;;11.06;53.57
34081;BME280;20358;50.272;19.026;2023-10-19T06:08:05;97158.72;;;11.13;53.70
34081;BME280;20358;50.272;19.026;2023-10-19T06:11:11;97152.22;;;11.19;53.96
34081;BME280;20358;50.272;19.026;2023-10-19T06:14:19;97144.88;;;11.24;53.92
34081;BME280;20358;50.272;19.026;2023-10-19T06:17:25;97129.81;;;11.28;54.14
34081;BME280;20358;50.272;19.026;2023-10-19T06:20:34;97124.97;;;11.34;54.19
34081;BME280;20358;50.272;19.026;2023-10-19T06:23:43;97127.66;;;11.45;53.69
34081;BME280;20358;50.272;19.026;2023-10-19T06:26:50;97122.72;;;11.53;54.14
34081;BME280;20358;50.272;19.026;2023-10-19T06:29:57;97119.19;;;11.65;53.68
34081;BME280;20358;50.272;19.026;2023-10-19T06:33:06;97125.44;;;11.75;53.07
34081;BME280;20358;50.272;19.026;2023-10-19T06:36:13;97114.53;;;11.81;52.38
34081;BME280;20358;50.272;19.026;2023-10-19T06:39:30;97114.31;;;11.85;51.93
34081;BME280;20358;50.272;19.026;2023-10-19T06:42:36;97104.56;;;11.87;52.01
34081;BME280;20358;50.272;19.026;2023-10-19T06:45:44;97101.72;;;11.90;51.71
34081;BME280;20358;50.272;19.026;2023-10-19T06:48:50;97089.97;;;11.95;52.04
34081;BME280;20358;50.272;19.026;2023-10-19T06:52:00;97078.41;;;11.98;51.99
34081;BME280;20358;50.272;19.026;2023-10-19T06:55:12;97085.06;;;12.02;51.36
34081;BME280;20358;50.272;19.026;2023-10-19T06:58:20;97085.56;;;12.07;51.59
34081;BME280;20358;50.272;19.026;2023-10-19T07:01:29;97070.34;;;12.12;51.84
34081;BME280;20358;50.272;19.026;2023-10-19T07:04:36;97074.06;;;12.20;51.45
34081;BME280;20358;50.272;19.026;2023-10-19T07:07:42;97074.41;;;12.27;50.88
34081;BME280;20358;50.272;19.026;2023-10-19T07:10:53;97067.63;;;12.35;51.45
34081;BME280;20358;50.272;19.026;2023-10-19T07:13:59;97056.09;;;12.38;50.53
34081;BME280;20358;50.272;19.026;2023-10-19T07:17:10;97059.66;;;12.48;50.92
34081;BME280;20358;50.272;19.026;2023-10-19T07:20:17;97068.97;;;12.52;50.96
34081;BME280;20358;50.272;19.026;2023-10-19T07:23:29;97060.63;;;12.58;50.36
34081;BME280;20358;50.272;19.026;2023-10-19T07:26:38;97052.28;;;12.64;49.92
34081;BME280;20358;50.272;19.026;2023-10-19T07:29:57;97035.84;;;12.73;50.26
34081;BME280;20358;50.272;19.026;2023-10-19T07:33:07;97042.88;;;12.84;50.43
34081;BME280;20358;50.272;19.026;2023-10-19T07:36:14;97037.97;;;12.90;49.73
34081;BME280;20358;50.272;19.026;2023-10-19T07:39:21;97036.50;;;12.97;49.81
34081;BME280;20358;50.272;19.026;2023-10-19T07:42:38;97027.00;;;12.96;49.71
34081;BME280;20358;50.272;19.026;2023-10-19T07:45:45;97032.47;;;13.04;48.96
34081;BME280;20358;50.272;19.026;2023-10-19T07:48:52;97023.28;;;13.10;49.43
34081;BME280;20358;50.272;19.026;2023-10-19T07:51:59;97014.81;;;13.18;49.22
34081;BME280;20358;50.272;19.026;2023-10-19T07:55:07;97021.78;;;13.28;49.13
34081;BME280;20358;50.272;19.026;2023-10-19T07:58:15;97026.19;;;13.39;48.72
34081;BME280;20358;50.272;19.026;2023-10-19T08:01:23;97022.38;;;13.43;48.09
34081;BME280;20358;50.272;19.026;2023-10-19T08:04:32;97026.97;;;13.50;48.49
34081;BME280;20358;50.272;19.026;2023-10-19T08:07:41;97025.41;;;13.59;48.14
34081;BME280;20358;50.272;19.026;2023-10-19T08:10:51;97014.13;;;13.68;47.58
34081;BME280;20358;50.272;19.026;2023-10-19T08:14:05;97015.47;;;13.83;47.76
34081;BME280;20358;50.272;19.026;2023-10-19T08:17:11;97012.09;;;13.92;47.56
34081;BME280;20358;50.272;19.026;2023-10-19T08:20:18;97001.88;;;13.99;47.45
34081;BME280;20358;50.272;19.026;2023-10-19T08:23:34;96990.63;;;14.08;47.04
34081;BME280;20358;50.272;19.026;2023-10-19T08:26:41;96977.66;;;14.16;46.70
34081;BME280;20358;50.272;19.026;2023-10-19T08:29:50;96986.69;;;14.23;46.61
34081;BME280;20358;50.272;19.026;2023-10-19T08:32:59;96980.78;;;14.30;46.70
34081;BME280;20358;50.272;19.026;2023-10-19T08:36:07;96968.09;;;14.36;46.84
34081;BME280;20358;50.272;19.026;2023-10-19T08:39:23;96975.72;;;14.39;46.00
34081;BME280;20358;50.272;19.026;2023-10-19T08:42:30;96978.19;;;14.40;46.49
34081;BME280;20358;50.272;19.026;2023-10-19T08:45:42;96983.38;;;14.51;46.90
34081;BME280;20358;50.272;19.026;2023-10-19T08:48:48;96979.97;;;14.60;46.46
34081;BME280;20358;50.272;19.026;2023-10-19T08:51:59;96980.94;;;14.69;46.83
34081;BME280;20358;50.272;19.026;2023-10-19T08:55:10;96977.63;;;14.76;46.39
34081;BME280;20358;50.272;19.026;2023-10-19T08:58:19;96982.53;;;14.81;45.88
34081;BME280;20358;50.272;19.026;2023-10-19T09:01:29;96956.63;;;14.86;45.63
34081;BME280;20358;50.272;19.026;2023-10-19T09:04:42;96950.25;;;14.88;45.68
34081;BME280;20358;50.272;19.026;2023-10-19T09:07:49;96945.53;;;14.92;46.18
34081;BME280;20358;50.272;19.026;2023-10-19T09:10:58;96942.78;;;14.94;45.95
34081;BME280;20358;50.272;19.026;2023-10-19T09:14:11;96939.75;;;14.98;46.88
34081;BME280;20358;50.272;19.026;2023-10-19T09:17:30;96942.38;;;14.98;45.86
34081;BME280;20358;50.272;19.026;2023-10-19T09:20:36;96936.97;;;15.00;46.06
34081;BME280;20358;50.272;19.026;2023-10-19T09:23:45;96924.53;;;15.02;46.54
34081;BME280;20358;50.272;19.026;2023-10-19T09:26:51;96911.22;;;15.03;47.04
34081;BME280;20358;50.272;19.026;2023-10-19T09:30:00;96934.75;;;15.05;47.68
34081;BME280;20358;50.272;19.026;2023-10-19T09:33:13;96939.22;;;15.04;47.80
34081;BME280;20358;50.272;19.026;2023-10-19T09:36:21;96937.38;;;15.05;48.86
34081;BME280;20358;50.272;19.026;2023-10-19T09:39:33;96932.97;;;15.05;49.50
34081;BME280;20358;50.272;19.026;2023-10-19T09:42:53;96945.16;;;15.06;49.78
34081;BME280;20358;50.272;19.026;2023-10-19T09:46:07;96935.16;;;15.10;49.36
34081;BME280;20358;50.272;19.026;2023-10-19T09:49:19;96925.91;;;15.15;50.12
34081;BME280;20358;50.272;19.026;2023-10-19T09:52:28;96916.78;;;15.19;49.87
34081;BME280;20358;50.272;19.026;2023-10-19T09:55:38;96931.44;;;15.31;49.89
34081;BME280;20358;50.272;19.026;2023-10-19T09:58:51;96921.31;;;15.36;48.95
34081;BME280;20358;50.272;19.026;2023-10-19T10:02:10;96914.81;;;15.40;49.00
34081;BME280;20358;50.272;19.026;2023-10-19T10:05:47;96921.47;;;15.44;49.38
34081;BME280;20358;50.272;19.026;2023-10-19T10:08:55;96908.28;;;15.44;49.47
34081;BME280;20358;50.272;19.026;2023-10-19T10:12:19;96900.16;;;15.47;50.32
34081;BME280;20358;50.272;19.026;2023-10-19T10:15:40;96884.34;;;15.47;50.03
34081;BME280;20358;50.272;19.026;2023-10-19T10:18:48;96875.19;;;15.51;50.55
34081;BME280;20358;50.272;19.026;2023-10-19T10:22:11;96876.56;;;15.56;50.36
34081;BME280;20358;50.272;19.026;2023-10-19T10:25:25;96811.16;;;15.32;50.80
34081;BME280;20358;50.272;19.026;2023-10-19T10:28:34;96859.06;;;15.74;50.37
34081;BME280;20358;50.272;19.026;2023-10-19T10:31:42;96852.13;;;15.73;50.46
34081;BME280;20358;50.272;19.026;2023-10-19T10:34:51;96843.94;;;15.76;50.80
34081;BME280;20358;50.272;19.026;2023-10-19T10:38:00;96839.06;;;15.81;51.25
34081;BME280;20358;50.272;19.026;2023-10-19T10:41:09;96829.59;;;15.88;51.82
34081;BME280;20358;50.272;19.026;2023-10-19T10:44:15;96815.16;;;15.92;51.03
34081;BME280;20358;50.272;19.026;2023-10-19T10:47:23;96818.19;;;15.97;51.30
34081;BME280;20358;50.272;19.026;2023-10-19T10:50:33;96818.13;;;16.06;51.61
34081;BME280;20358;50.272;19.026;2023-10-19T10:53:43;96810.50;;;16.13;52.23
34081;BME280;20358;50.272;19.026;2023-10-19T10:56:51;96813.06;;;16.23;52.45
34081;BME280;20358;50.272;19.026;2023-10-19T11:00:07;96798.59;;;16.27;52.43
34081;BME280;20358;50.272;19.026;2023-10-19T11:03:21;96790.84;;;16.25;51.73
34081;BME280;20358;50.272;19.026;2023-10-19T11:06:33;96788.28;;;16.33;51.93
34081;BME280;20358;50.272;19.026;2023-10-19T11:09:55;96785.06;;;16.39;52.24
34081;BME280;20358;50.272;19.026;2023-10-19T11:13:04;96778.50;;;16.43;51.60
34081;BME280;20358;50.272;19.026;2023-10-19T11:16:22;96772.25;;;16.44;52.11
34081;BME280;20358;50.272;19.026;2023-10-19T11:19:38;96765.31;;;16.43;51.99
34081;BME280;20358;50.272;19.026;2023-10-19T11:22:49;96769.31;;;16.47;52.57
34081;BME280;20358;50.272;19.026;2023-10-19T11:26:00;96762.09;;;16.49;52.51
34081;BME280;20358;50.272;19.026;2023-10-19T11:29:08;96764.03;;;16.47;53.00
34081;BME280;20358;50.272;19.026;2023-10-19T11:32:16;96758.47;;;16.50;53.35
34081;BME280;20358;50.272;19.026;2023-10-19T11:35:23;96762.75;;;16.51;53.32
34081;BME280;20358;50.272;19.026;2023-10-19T11:38:31;96767.06;;;16.52;53.15
34081;BME280;20358;50.272;19.026;2023-10-19T11:41:40;96768.75;;;16.53;53.26
34081;BME280;20358;50.272;19.026;2023-10-19T11:44:47;96770.53;;;16.53;52.94
34081;BME280;20358;50.272;19.026;2023-10-19T11:47:55;96766.78;;;16.55;52.98
34081;BME280;20358;50.272;19.026;2023-10-19T11:51:03;96770.13;;;16.57;52.28
34081;BME280;20358;50.272;19.026;2023-10-19T11:54:10;96770.13;;;16.57;52.70
34081;BME280;20358;50.272;19.026;2023-10-19T11:57:20;96778.31;;;16.54;53.16
34081;BME280;20358;50.272;19.026;2023-10-19T12:00:26;96768.16;;;16.50;53.39
34081;BME280;20358;50.272;19.026;2023-10-19T12:03:37;96758.91;;;16.46;54.21
34081;BME280;20358;50.272;19.026;2023-10-19T12:06:46;96758.91;;;16.46;54.72
34081;BME280;20358;50.272;19.026;2023-10-19T12:09:53;96749.88;;;16.48;54.94
34081;BME280;20358;50.272;19.026;2023-10-19T12:13:02;96736.84;;;16.47;53.91
34081;BME280;20358;50.272;19.026;2023-10-19T12:16:11;96737.44;;;16.41;54.17
34081;BME280;20358;50.272;19.026;2023-10-19T12:19:18;96739.91;;;16.42;54.73
34081;BME280;20358;50.272;19.026;2023-10-19T12:22:26;96736.75;;;16.39;54.30
34081;BME280;20358;50.272;19.026;2023-10-19T12:25:35;96736.22;;;16.35;53.93
34081;BME280;20358;50.272;19.026;2023-10-19T12:29:01;96730.88;;;16.27;54.46
34081;BME280;20358;50.272;19.026;2023-10-19T12:32:14;96733.13;;;16.22;54.32
34081;BME280;20358;50.272;19.026;2023-10-19T12:35:21;96727.94;;;16.12;54.45
34081;BME280;20358;50.272;19.026;2023-10-19T12:38:33;96722.72;;;16.03;55.27
34081;BME280;20358;50.272;19.026;2023-10-19T12:41:41;96718.03;;;15.97;55.82
34081;BME280;20358;50.272;19.026;2023-10-19T12:44:50;96710.41;;;15.94;55.87
34081;BME280;20358;50.272;19.026;2023-10-19T12:47:57;96703.09;;;15.88;56.08
34081;BME280;20358;50.272;19.026;2023-10-19T12:51:05;96701.47;;;15.87;56.82
34081;BME280;20358;50.272;19.026;2023-10-19T12:54:15;96692.81;;;15.94;57.41
34081;BME280;20358;50.272;19.026;2023-10-19T12:57:21;96693.19;;;15.99;57.57
34081;BME280;20358;50.272;19.026;2023-10-19T13:00:30;96694.63;;;16.11;57.49
34081;BME280;20358;50.272;19.026;2023-10-19T13:03:39;96686.50;;;16.23;57.85
34081;BME280;20358;50.272;19.026;2023-10-19T13:06:49;96692.00;;;16.29;57.19
34081;BME280;20358;50.272;19.026;2023-10-19T13:10:00;96682.50;;;16.36;57.21
34081;BME280;20358;50.272;19.026;2023-10-19T13:13:11;96683.31;;;16.37;56.88
34081;BME280;20358;50.272;19.026;2023-10-19T13:16:22;96678.88;;;16.37;57.00
34081;BME280;20358;50.272;19.026;2023-10-19T13:19:29;96670.84;;;16.39;56.85
34081;BME280;20358;50.272;19.026;2023-10-19T13:22:35;96659.28;;;16.40;56.68
34081;BME280;20358;50.272;19.026;2023-10-19T13:25:43;96659.16;;;16.41;56.59
34081;BME280;20358;50.272;19.026;2023-10-19T13:28:53;96655.00;;;16.39;56.63
34081;BME280;20358;50.272;19.026;2023-10-19T13:32:03;96643.75;;;16.37;57.03
34081;BME280;20358;50.272;19.026;2023-10-19T13:35:10;96642.97;;;16.36;56.82
34081;BME280;20358;50.272;19.026;2023-10-19T13:38:18;96631.72;;;16.34;57.29
34081;BME280;20358;50.272;19.026;2023-10-19T13:41:25;96629.06;;;16.34;57.37
34081;BME280;20358;50.272;19.026;2023-10-19T13:44:32;96626.97;;;16.38;57.53
34081;BME280;20358;50.272;19.026;2023-10-19T13:47:45;96625.84;;;16.40;57.98
34081;BME280;20358;50.272;19.026;2023-10-19T13:50:52;96625.53;;;16.43;57.66
34081;BME280;20358;50.272;19.026;2023-10-19T13:54:04;96606.22;;;16.43;57.67
34081;BME280;20358;50.272;19.026;2023-10-19T13:57:11;96601.19;;;16.49;57.43
34081;BME280;20358;50.272;19.026;2023-10-19T14:00:20;96590.34;;;16.52;57.61
34081;BME280;20358;50.272;19.026;2023-10-19T14:03:37;96575.19;;;16.54;57.64
34081;BME280;20358;50.272;19.026;2023-10-19T14:06:44;96582.41;;;16.52;57.44
34081;BME280;20358;50.272;19.026;2023-10-19T14:09:53;96571.88;;;16.52;57.77
34081;BME280;20358;50.272;19.026;2023-10-19T14:13:01;96567.56;;;16.51;57.88
34081;BME280;20358;50.272;19.026;2023-10-19T14:16:09;96559.97;;;16.48;57.90
34081;BME280;20358;50.272;19.026;2023-10-19T14:19:18;96564.56;;;16.46;58.00
34081;BME280;20358;50.272;19.026;2023-10-19T14:22:28;96582.19;;;16.46;58.40
34081;BME280;20358;50.272;19.026;2023-10-19T14:25:38;96590.28;;;16.44;58.16
34081;BME280;20358;50.272;19.026;2023-10-19T14:28:48;96599.16;;;16.43;58.39
34081;BME280;20358;50.272;19.026;2023-10-19T14:31:54;96602.75;;;16.42;58.29
34081;BME280;20358;50.272;19.026;2023-10-19T14:35:08;96595.56;;;16.44;58.28
34081;BME280;20358;50.272;19.026;2023-10-19T14:38:15;96589.44;;;16.44;58.30
34081;BME280;20358;50.272;19.026;2023-10-19T14:41:22;96580.53;;;16.45;58.57
34081;BME280;20358;50.272;19.026;2023-10-19T14:44:29;96587.47;;;16.46;58.67
34081;BME280;20358;50.272;19.026;2023-10-19T14:47:37;96588.31;;;16.46;58.85
34081;BME280;20358;50.272;19.026;2023-10-19T14:50:46;96595.22;;;16.47;58.72
34081;BME280;20358;50.272;19.026;2023-10-19T14:53:54;96594.09;;;16.50;58.90
34081;BME280;20358;50.272;19.026;2023-10-19T14:57:02;96595.91;;;16.49;58.80
34081;BME280;20358;50.272;19.026;2023-10-19T15:00:12;96591.59;;;16.48;58.64
34081;BME280;20358;50.272;19.026;2023-10-19T15:03:24;96599.69;;;16.47;58.75
34081;BME280;20358;50.272;19.026;2023-10-19T15:06:35;96593.88;;;16.43;58.94
34081;BME280;20358;50.272;19.026;2023-10-19T15:09:45;96587.28;;;16.39;59.08
34081;BME280;20358;50.272;19.026;2023-10-19T15:12:52;96575.38;;;16.35;59.43
34081;BME280;20358;50.272;19.026;2023-10-19T15:16:07;96576.50;;;16.33;59.16
34081;BME280;20358;50.272;19.026;2023-10-19T15:19:16;96537.88;;;16.06;59.47
34081;BME280;20358;50.272;19.026;2023-10-19T15:22:25;96575.59;;;16.24;59.47
34081;BME280;20358;50.272;19.026;2023-10-19T15:25:32;96566.88;;;16.24;59.72
34081;BME280;20358;50.272;19.026;2023-10-19T15:28:38;96569.66;;;16.22;59.77
34081;BME280;20358;50.272;19.026;2023-10-19T15:31:47;96569.00;;;16.20;59.64
34081;BME280;20358;50.272;19.026;2023-10-19T15:34:53;96570.97;;;16.18;59.90
34081;BME280;20358;50.272;19.026;2023-10-19T15:38:03;96568.31;;;16.18;60.02
34081;BME280;20358;50.272;19.026;2023-10-19T15:41:10;96575.22;;;16.19;59.84
34081;BME280;20358;50.272;19.026;2023-10-19T15:44:20;96569.28;;;16.17;60.06
34081;BME280;20358;50.272;19.026;2023-10-19T15:47:26;96565.00;;;16.16;59.93
34081;BME280;20358;50.272;19.026;2023-10-19T15:50:34;96561.97;;;16.11;60.01
34081;BME280;20358;50.272;19.026;2023-10-19T15:53:43;96554.25;;;16.09;60.27
34081;BME280;20358;50.272;19.026;2023-10-19T15:56:51;96568.25;;;16.10;60.29
34081;BME280;20358;50.272;19.026;2023-10-19T15:59:57;96557.72;;;16.10;60.63
34081;BME280;20358;50.272;19.026;2023-10-19T16:03:08;96571.84;;;16.09;60.57
34081;BME280;20358;50.272;19.026;2023-10-19T16:06:15;96563.13;;;16.08;60.72
34081;BME280;20358;50.272;19.026;2023-10-19T16:09:25;96554.25;;;16.09;60.91
34081;BME280;20358;50.272;19.026;2023-10-19T16:12:32;96547.47;;;16.07;60.61
34081;BME280;20358;50.272;19.026;2023-10-19T16:15:39;96557.34;;;16.05;60.62
34081;BME280;20358;50.272;19.026;2023-10-19T16:18:45;96552.38;;;16.02;60.76
34081;BME280;20358;50.272;19.026;2023-10-19T16:21:52;96543.63;;;16.01;60.81
34081;BME280;20358;50.272;19.026;2023-10-19T16:25:01;96542.81;;;16.01;61.07
34081;BME280;20358;50.272;19.026;2023-10-19T16:28:09;96549.06;;;16.00;60.95
34081;BME280;20358;50.272;19.026;2023-10-19T16:31:15;96549.88;;;16.00;61.00
34081;BME280;20358;50.272;19.026;2023-10-19T16:34:22;96549.38;;;15.97;61.14